createdAt,value
2018-03-06T00:00:50.172Z,4.53
2018-03-06T00:01:50.877Z,4.53
2018-03-06T00:02:51.818Z,4.53
2018-03-06T00:03:52.531Z,4.49
2018-03-06T00:04:53.235Z,4.48
2018-03-06T00:05:53.955Z,4.42
2018-03-06T00:06:54.678Z,4.44
2018-03-06T00:07:55.379Z,4.50
2018-03-06T00:08:56.085Z,4.58
2018-03-06T00:09:56.791Z,4.53
2018-03-06T00:10:57.496Z,4.55
2018-03-06T00:11:58.205Z,4.44
2018-03-06T00:12:58.909Z,4.49
2018-03-06T00:13:59.628Z,4.40
2018-03-06T00:15:00.332Z,4.44
2018-03-06T00:16:01.037Z,4.41
2018-03-06T00:17:01.746Z,4.40
2018-03-06T00:18:02.462Z,4.38
2018-03-06T00:19:03.167Z,4.32
2018-03-06T00:20:03.874Z,4.30
2018-03-06T00:21:04.592Z,4.30
2018-03-06T00:22:05.298Z,4.32
2018-03-06T00:23:06.005Z,4.32
2018-03-06T00:24:06.710Z,4.24
2018-03-06T00:25:07.417Z,4.30
2018-03-06T00:26:08.115Z,4.31
2018-03-06T00:27:08.820Z,4.28
2018-03-06T00:28:09.526Z,4.30
2018-03-06T00:29:10.233Z,4.26
2018-03-06T00:30:10.938Z,4.16
2018-03-06T00:31:11.645Z,4.20
2018-03-06T00:32:12.351Z,4.08
2018-03-06T00:33:13.058Z,4.13
2018-03-06T00:34:13.782Z,4.19
2018-03-06T00:35:14.492Z,4.05
2018-03-06T00:36:15.197Z,4.05
2018-03-06T00:37:15.903Z,4.10
2018-03-06T00:38:16.610Z,4.04
2018-03-06T00:39:17.317Z,4.04
2018-03-06T00:40:18.023Z,4.01
2018-03-06T00:41:18.729Z,3.96
2018-03-06T00:42:19.435Z,3.86
2018-03-06T00:43:20.141Z,3.86
2018-03-06T00:44:20.854Z,3.83
2018-03-06T00:45:21.559Z,3.86
2018-03-06T00:46:22.264Z,3.84
2018-03-06T00:47:22.970Z,3.87
2018-03-06T00:48:23.675Z,3.77
2018-03-06T00:49:24.380Z,3.73
2018-03-06T00:50:25.138Z,3.83
2018-03-06T00:51:25.792Z,3.74
2018-03-06T00:52:26.496Z,3.68
2018-03-06T00:53:27.204Z,3.65
2018-03-06T00:54:27.914Z,3.70
2018-03-06T00:55:28.617Z,3.76
2018-03-06T00:56:29.322Z,3.60
2018-03-06T00:57:30.042Z,3.60
2018-03-06T00:58:30.752Z,3.58
2018-03-06T00:59:31.452Z,3.60
2018-03-06T01:00:32.159Z,3.62
2018-03-06T01:01:32.864Z,3.47
2018-03-06T01:02:33.570Z,3.47
2018-03-06T01:03:34.477Z,3.51
2018-03-06T01:04:35.183Z,3.50
2018-03-06T01:05:35.889Z,3.48
2018-03-06T01:06:36.592Z,3.53
2018-03-06T01:07:37.307Z,3.47
2018-03-06T01:08:38.018Z,3.45
2018-03-06T01:09:38.972Z,3.47
2018-03-06T01:10:39.687Z,3.48
2018-03-06T01:11:40.394Z,3.53
2018-03-06T01:12:41.115Z,3.50
2018-03-06T01:13:41.821Z,3.50
2018-03-06T01:14:42.776Z,3.50
2018-03-06T01:15:43.484Z,3.48
2018-03-06T01:16:44.200Z,3.45
2018-03-06T01:17:44.906Z,3.47
2018-03-06T01:18:45.610Z,3.41
2018-03-06T01:19:46.315Z,3.45
2018-03-06T01:20:47.022Z,3.41
2018-03-06T01:21:47.739Z,3.47
2018-03-06T01:22:48.447Z,3.41
2018-03-06T01:23:49.150Z,3.44
2018-03-06T01:24:49.857Z,3.40
2018-03-06T01:25:50.560Z,3.37
2018-03-06T01:26:51.265Z,3.37
2018-03-06T01:27:51.964Z,3.41
2018-03-06T01:28:52.670Z,3.31
2018-03-06T01:29:53.369Z,3.29
2018-03-06T01:30:54.073Z,3.32
2018-03-06T01:31:54.778Z,3.31
2018-03-06T01:32:55.482Z,3.41
2018-03-06T01:33:56.187Z,3.31
2018-03-06T01:34:56.891Z,3.22
2018-03-06T01:35:57.602Z,3.32
2018-03-06T01:36:58.315Z,3.18
2018-03-06T01:37:59.233Z,3.23
2018-03-06T01:38:59.941Z,3.21
2018-03-06T01:40:00.647Z,3.21
2018-03-06T01:41:01.351Z,3.14
2018-03-06T01:42:02.069Z,3.16
2018-03-06T01:43:03.425Z,3.21
2018-03-06T01:44:04.132Z,3.19
2018-03-06T01:45:04.836Z,3.14
2018-03-06T01:46:05.540Z,3.16
2018-03-06T01:47:06.246Z,3.19
2018-03-06T01:48:06.951Z,3.13
2018-03-06T01:49:07.658Z,3.19
2018-03-06T01:50:08.363Z,3.03
2018-03-06T01:51:09.080Z,3.08
2018-03-06T01:52:09.784Z,3.11
2018-03-06T01:53:10.482Z,3.07
2018-03-06T01:54:11.187Z,3.08
2018-03-06T01:55:11.892Z,3.10
2018-03-06T01:56:12.617Z,3.10
2018-03-06T01:57:13.316Z,3.08
2018-03-06T01:58:14.014Z,2.98
2018-03-06T01:59:14.718Z,3.04
2018-03-06T02:00:15.434Z,2.90
2018-03-06T02:01:16.142Z,2.92
2018-03-06T02:02:16.848Z,2.85
2018-03-06T02:03:17.554Z,2.82
2018-03-06T02:04:18.265Z,2.82
2018-03-06T02:05:18.971Z,2.80
2018-03-06T02:06:19.681Z,2.71
2018-03-06T02:07:20.383Z,2.74
2018-03-06T02:08:21.087Z,2.68
2018-03-06T02:09:21.794Z,2.69
2018-03-06T02:10:22.510Z,2.65
2018-03-06T02:11:23.214Z,2.69
2018-03-06T02:12:23.932Z,2.60
2018-03-06T02:13:24.645Z,2.65
2018-03-06T02:14:25.350Z,2.54
2018-03-06T02:15:26.056Z,2.56
2018-03-06T02:16:26.774Z,2.56
2018-03-06T02:17:27.492Z,2.51
2018-03-06T02:18:28.199Z,2.54
2018-03-06T02:19:28.904Z,2.51
2018-03-06T02:20:29.609Z,2.54
2018-03-06T02:21:30.325Z,2.62
2018-03-06T02:22:31.040Z,2.61
2018-03-06T02:23:31.745Z,2.49
2018-03-06T02:24:32.450Z,2.56
2018-03-06T02:25:33.153Z,2.47
2018-03-06T02:26:33.868Z,2.49
2018-03-06T02:27:34.583Z,2.54
2018-03-06T02:28:35.300Z,2.49
2018-03-06T02:29:36.018Z,2.44
2018-03-06T02:30:36.724Z,2.50
2018-03-06T02:31:37.439Z,2.51
2018-03-06T02:32:38.144Z,2.61
2018-03-06T02:33:38.858Z,2.44
2018-03-06T02:34:39.569Z,2.54
2018-03-06T02:35:40.275Z,2.43
2018-03-06T02:36:40.989Z,2.43
2018-03-06T02:37:46.738Z,2.36
2018-03-06T02:38:47.434Z,2.25
2018-03-06T02:39:48.149Z,2.43
2018-03-06T02:40:48.854Z,2.33
2018-03-06T02:41:49.575Z,2.32
2018-03-06T02:42:50.276Z,2.29
2018-03-06T02:43:50.975Z,2.20
2018-03-06T02:44:51.679Z,2.32
2018-03-06T02:45:52.383Z,2.31
2018-03-06T02:46:53.089Z,2.24
2018-03-06T02:47:53.802Z,2.28
2018-03-06T02:48:54.522Z,2.18
2018-03-06T02:49:55.211Z,2.22
2018-03-06T02:50:55.916Z,2.25
2018-03-06T02:51:56.619Z,2.18
2018-03-06T02:52:57.335Z,2.22
2018-03-06T02:53:58.044Z,2.14
2018-03-06T02:54:58.743Z,2.15
2018-03-06T02:55:59.648Z,2.13
2018-03-06T02:57:00.351Z,2.14
2018-03-06T02:58:01.063Z,2.11
2018-03-06T02:59:01.766Z,2.13
2018-03-06T03:00:02.468Z,2.00
2018-03-06T03:01:03.172Z,2.06
2018-03-06T03:02:04.105Z,2.04
2018-03-06T03:03:04.811Z,2.02
2018-03-06T03:04:05.523Z,1.97
2018-03-06T03:05:06.233Z,1.95
2018-03-06T03:06:07.092Z,2.02
2018-03-06T03:07:07.790Z,1.99
2018-03-06T03:08:08.507Z,1.92
2018-03-06T03:09:09.216Z,1.99
2018-03-06T03:10:09.920Z,2.04
2018-03-06T03:11:10.626Z,1.95
2018-03-06T03:12:11.327Z,1.99
2018-03-06T03:13:12.038Z,2.02
2018-03-06T03:14:12.743Z,1.95
2018-03-06T03:15:13.450Z,1.95
2018-03-06T03:16:14.152Z,1.88
2018-03-06T03:17:14.866Z,2.04
2018-03-06T03:18:15.569Z,1.97
2018-03-06T03:19:16.266Z,1.94
2018-03-06T03:20:16.982Z,1.92
2018-03-06T03:21:17.677Z,1.87
2018-03-06T03:22:18.393Z,1.81
2018-03-06T03:23:19.110Z,1.92
2018-03-06T03:24:19.813Z,1.89
2018-03-06T03:25:20.530Z,1.94
2018-03-06T03:26:21.247Z,1.81
2018-03-06T03:27:21.951Z,1.81
2018-03-06T03:28:22.655Z,1.91
2018-03-06T03:29:23.356Z,1.80
2018-03-06T03:30:24.062Z,1.84
2018-03-06T03:31:24.768Z,1.88
2018-03-06T03:32:28.511Z,1.85
2018-03-06T03:33:29.215Z,1.87
2018-03-06T03:34:29.920Z,1.78
2018-03-06T03:35:30.633Z,1.87
2018-03-06T03:36:31.336Z,1.74
2018-03-06T03:37:32.040Z,1.76
2018-03-06T03:38:32.755Z,1.76
2018-03-06T03:39:33.459Z,1.81
2018-03-06T03:40:34.163Z,1.74
2018-03-06T03:41:34.868Z,1.88
2018-03-06T03:42:35.571Z,1.85
2018-03-06T03:43:36.276Z,1.77
2018-03-06T03:44:36.984Z,1.85
2018-03-06T03:45:37.720Z,1.88
2018-03-06T03:46:38.416Z,1.78
2018-03-06T03:47:39.121Z,1.77
2018-03-06T03:48:39.828Z,1.88
2018-03-06T03:49:40.534Z,1.87
2018-03-06T03:50:41.238Z,1.85
2018-03-06T03:51:41.944Z,1.88
2018-03-06T03:52:42.649Z,1.78
2018-03-06T03:53:43.366Z,1.89
2018-03-06T03:54:44.070Z,1.95
2018-03-06T03:55:44.775Z,1.92
2018-03-06T03:56:45.780Z,1.91
2018-03-06T03:57:46.485Z,1.92
2018-03-06T03:58:47.201Z,1.92
2018-03-06T03:59:47.903Z,1.89
2018-03-06T04:00:48.608Z,1.91
2018-03-06T04:01:49.312Z,2.00
2018-03-06T04:02:50.019Z,2.07
2018-03-06T04:03:50.724Z,1.84
2018-03-06T04:04:51.434Z,1.94
2018-03-06T04:05:52.140Z,1.89
2018-03-06T04:06:52.843Z,1.91
2018-03-06T04:07:53.549Z,1.99
2018-03-06T04:08:54.256Z,1.94
2018-03-06T04:09:54.971Z,1.91
2018-03-06T04:10:55.666Z,1.76
2018-03-06T04:11:56.370Z,1.76
2018-03-06T04:12:57.075Z,1.78
2018-03-06T04:13:57.781Z,1.76
2018-03-06T04:14:58.487Z,1.71
2018-03-06T04:15:59.191Z,1.68
2018-03-06T04:16:59.895Z,1.78
2018-03-06T04:19:23.837Z,1.78
2018-03-06T04:20:24.553Z,1.87
2018-03-06T04:21:25.257Z,1.77
2018-03-06T04:22:25.959Z,1.81
2018-03-06T04:23:26.664Z,1.76
2018-03-06T04:24:27.381Z,1.89
2018-03-06T04:25:28.090Z,1.87
2018-03-06T04:26:28.791Z,1.80
2018-03-06T04:27:29.509Z,1.85
2018-03-06T04:28:30.222Z,1.85
2018-03-06T04:29:30.927Z,1.91
2018-03-06T04:30:31.832Z,1.92
2018-03-06T04:31:32.546Z,1.89
2018-03-06T04:32:33.251Z,1.84
2018-03-06T04:33:33.955Z,1.88
2018-03-06T04:34:34.660Z,1.88
2018-03-06T04:35:35.376Z,1.81
2018-03-06T04:36:36.087Z,1.89
2018-03-06T04:37:36.791Z,1.88
2018-03-06T04:38:37.494Z,1.84
2018-03-06T04:39:38.203Z,1.74
2018-03-06T04:40:43.940Z,1.85
2018-03-06T04:41:44.641Z,1.63
2018-03-06T04:42:45.346Z,1.73
2018-03-06T04:43:46.052Z,1.66
2018-03-06T04:44:51.799Z,1.70
2018-03-06T04:45:53.505Z,1.66
2018-03-06T04:46:54.213Z,1.68
2018-03-06T04:47:54.917Z,1.63
2018-03-06T04:48:55.634Z,1.68
2018-03-06T04:49:56.350Z,1.67
2018-03-06T04:50:57.054Z,1.59
2018-03-06T04:51:57.767Z,1.58
2018-03-06T04:52:58.469Z,1.56
2018-03-06T04:53:59.174Z,1.45
2018-03-06T04:54:59.879Z,1.53
2018-03-06T04:56:00.582Z,1.52
2018-03-06T04:57:01.292Z,1.45
2018-03-06T04:58:01.994Z,1.53
2018-03-06T04:59:02.699Z,1.53
2018-03-06T05:00:03.404Z,1.49
2018-03-06T05:01:04.112Z,1.44
2018-03-06T05:02:04.826Z,1.50
2018-03-06T05:03:05.530Z,1.59
2018-03-06T05:04:06.235Z,1.53
2018-03-06T05:05:06.940Z,1.48
2018-03-06T05:06:07.646Z,1.55
2018-03-06T05:07:08.351Z,1.58
2018-03-06T05:08:09.057Z,1.50
2018-03-06T05:09:09.761Z,1.45
2018-03-06T05:10:10.468Z,1.50
2018-03-06T05:11:11.173Z,1.53
2018-03-06T05:12:11.878Z,1.42
2018-03-06T05:13:12.584Z,1.56
2018-03-06T05:14:13.287Z,1.53
2018-03-06T05:15:13.990Z,1.53
2018-03-06T05:16:14.695Z,1.50
2018-03-06T05:17:15.398Z,1.52
2018-03-06T05:18:16.115Z,1.56
2018-03-06T05:19:16.820Z,1.55
2018-03-06T05:20:17.526Z,1.62
2018-03-06T05:21:18.244Z,1.55
2018-03-06T05:22:18.948Z,1.60
2018-03-06T05:23:19.663Z,1.50
2018-03-06T05:24:20.366Z,1.50
2018-03-06T05:25:21.080Z,1.52
2018-03-06T05:26:21.784Z,1.42
2018-03-06T05:27:22.497Z,1.56
2018-03-06T05:28:23.202Z,1.55
2018-03-06T05:29:23.906Z,1.56
2018-03-06T05:30:24.609Z,1.59
2018-03-06T05:31:25.316Z,1.58
2018-03-06T05:32:26.029Z,1.52
2018-03-06T05:33:26.739Z,1.56
2018-03-06T05:34:27.442Z,1.63
2018-03-06T05:35:28.147Z,1.60
2018-03-06T05:36:28.850Z,1.59
2018-03-06T05:37:29.554Z,1.53
2018-03-06T05:38:30.258Z,1.53
2018-03-06T05:39:30.962Z,1.59
2018-03-06T05:40:31.667Z,1.50
2018-03-06T05:41:32.370Z,1.58
2018-03-06T05:42:33.087Z,1.56
2018-03-06T05:43:33.791Z,1.62
2018-03-06T05:44:34.495Z,1.62
2018-03-06T05:45:35.199Z,1.66
2018-03-06T05:46:35.906Z,1.73
2018-03-06T05:47:36.619Z,1.73
2018-03-06T05:48:37.324Z,1.70
2018-03-06T05:49:38.030Z,1.68
2018-03-06T05:50:38.735Z,1.73
2018-03-06T05:51:39.455Z,1.67
2018-03-06T05:52:40.167Z,1.68
2018-03-06T05:53:40.882Z,1.62
2018-03-06T05:54:41.586Z,1.67
2018-03-06T05:55:42.304Z,1.63
2018-03-06T05:56:43.008Z,1.70
2018-03-06T05:57:43.713Z,1.73
2018-03-06T05:58:44.417Z,1.63
2018-03-06T05:59:45.124Z,1.70
2018-03-06T06:00:45.830Z,1.73
2018-03-06T06:01:46.537Z,1.76
2018-03-06T06:02:47.243Z,1.68
2018-03-06T06:03:47.960Z,1.63
2018-03-06T06:04:48.667Z,1.67
2018-03-06T06:05:49.374Z,1.73
2018-03-06T06:06:50.081Z,1.70
2018-03-06T06:07:50.787Z,1.74
2018-03-06T06:08:51.496Z,1.73
2018-03-06T06:09:52.204Z,1.59
2018-03-06T06:10:52.918Z,1.76
2018-03-06T06:11:53.633Z,1.62
2018-03-06T06:12:54.352Z,1.76
2018-03-06T06:13:55.063Z,1.55
2018-03-06T06:14:55.771Z,1.67
2018-03-06T06:15:56.478Z,1.85
2018-03-06T06:16:57.185Z,1.81
2018-03-06T06:17:57.893Z,1.71
2018-03-06T06:18:58.612Z,1.81
2018-03-06T06:19:59.320Z,1.84
2018-03-06T06:21:00.027Z,1.80
2018-03-06T06:22:00.734Z,1.94
2018-03-06T06:23:01.442Z,1.99
2018-03-06T06:24:02.163Z,2.07
2018-03-06T06:25:02.870Z,2.02
2018-03-06T06:26:03.576Z,2.07
2018-03-06T06:27:04.284Z,2.18
2018-03-06T06:28:04.992Z,2.20
2018-03-06T06:29:05.700Z,2.20
2018-03-06T06:30:06.407Z,2.26
2018-03-06T06:31:07.114Z,2.31
2018-03-06T06:32:07.826Z,2.43
2018-03-06T06:33:08.532Z,2.43
2018-03-06T06:34:09.241Z,2.46
2018-03-06T06:35:09.961Z,2.53
2018-03-06T06:36:10.668Z,2.65
2018-03-06T06:37:11.377Z,2.86
2018-03-06T06:38:12.087Z,2.87
2018-03-06T06:39:12.843Z,3.08
2018-03-06T06:40:13.520Z,3.18
2018-03-06T06:41:14.227Z,3.41
2018-03-06T06:42:14.936Z,3.62
2018-03-06T06:43:15.646Z,3.69
2018-03-06T06:44:16.368Z,3.69
2018-03-06T06:45:17.080Z,3.91
2018-03-06T06:46:17.802Z,4.10
2018-03-06T06:47:18.512Z,4.28
2018-03-06T06:48:19.220Z,4.26
2018-03-06T06:49:19.932Z,4.31
2018-03-06T06:50:20.654Z,4.41
2018-03-06T06:51:21.365Z,4.55
2018-03-06T06:52:22.098Z,4.58
2018-03-06T06:53:22.785Z,4.62
2018-03-06T06:54:23.499Z,4.63
2018-03-06T06:55:24.211Z,4.71
2018-03-06T06:56:24.924Z,4.75
2018-03-06T06:57:25.645Z,4.97
2018-03-06T06:58:26.359Z,5.02
2018-03-06T06:59:27.081Z,5.18
2018-03-06T07:00:27.794Z,5.32
2018-03-06T07:01:28.506Z,5.36
2018-03-06T07:02:29.218Z,5.44
2018-03-06T07:03:29.931Z,5.39
2018-03-06T07:04:30.640Z,5.38
2018-03-06T07:05:31.354Z,5.53
2018-03-06T07:06:32.065Z,5.61
2018-03-06T07:07:32.787Z,5.39
2018-03-06T07:08:33.501Z,5.33
2018-03-06T07:09:34.214Z,5.11
2018-03-06T07:10:34.928Z,4.99
2018-03-06T07:11:35.654Z,5.02
2018-03-06T07:12:36.366Z,4.84
2018-03-06T07:13:37.078Z,4.89
2018-03-06T07:14:37.789Z,4.90
2018-03-06T07:15:38.502Z,4.87
2018-03-06T07:16:39.213Z,4.94
2018-03-06T07:17:39.942Z,5.11
2018-03-06T07:18:40.690Z,5.30
2018-03-06T07:19:41.399Z,5.47
2018-03-06T07:20:42.112Z,5.69
2018-03-06T07:21:42.823Z,5.87
2018-03-06T07:22:43.537Z,6.05
2018-03-06T07:23:44.302Z,6.38
2018-03-06T07:24:44.975Z,6.66
2018-03-06T07:25:45.700Z,6.36
2018-03-06T07:26:46.427Z,6.70
2018-03-06T07:27:47.141Z,6.84
2018-03-06T07:28:47.853Z,6.85
2018-03-06T07:29:48.567Z,7.39
2018-03-06T07:30:49.285Z,7.51
2018-03-06T07:31:50.016Z,7.73
2018-03-06T07:32:50.734Z,7.66
2018-03-06T07:33:51.451Z,7.72
2018-03-06T07:34:52.166Z,7.85
2018-03-06T07:35:52.881Z,8.00
2018-03-06T07:36:53.597Z,8.24
2018-03-06T07:37:54.314Z,8.36
2018-03-06T07:38:55.033Z,8.41
2018-03-06T07:39:55.748Z,8.51
2018-03-06T07:40:56.464Z,8.67
2018-03-06T07:41:57.181Z,8.97
2018-03-06T07:42:57.897Z,9.26
2018-03-06T07:43:58.618Z,9.54
2018-03-06T07:44:59.341Z,9.68
2018-03-06T07:46:00.052Z,9.84
2018-03-06T07:47:00.772Z,9.87
2018-03-06T07:48:01.490Z,9.86
2018-03-06T07:49:02.206Z,9.73
2018-03-06T07:50:02.935Z,9.51
2018-03-06T07:51:03.653Z,9.76
2018-03-06T07:52:04.373Z,9.74
2018-03-06T07:53:05.097Z,9.84
2018-03-06T07:54:05.836Z,9.80
2018-03-06T07:55:06.545Z,9.69
2018-03-06T07:56:07.260Z,9.64
2018-03-06T07:57:07.979Z,9.32
2018-03-06T07:58:08.711Z,9.14
2018-03-06T07:59:09.429Z,9.29
2018-03-06T08:00:10.157Z,9.31
2018-03-06T08:01:10.887Z,9.41
2018-03-06T08:02:11.618Z,9.56
2018-03-06T08:03:12.337Z,9.44
2018-03-06T08:04:13.057Z,9.50
2018-03-06T08:05:13.775Z,9.66
2018-03-06T08:06:14.494Z,9.86
2018-03-06T08:07:15.216Z,9.86
2018-03-06T08:08:15.945Z,10.25
2018-03-06T08:09:16.665Z,10.22
2018-03-06T08:10:17.384Z,10.26
2018-03-06T08:11:18.104Z,10.12
2018-03-06T08:12:18.825Z,10.30
2018-03-06T08:13:19.545Z,10.37
2018-03-06T08:14:20.267Z,10.63
2018-03-06T08:15:20.988Z,10.59
2018-03-06T08:16:21.729Z,10.68
2018-03-06T08:17:22.432Z,10.68
2018-03-06T08:18:23.154Z,11.05
2018-03-06T08:19:23.876Z,10.93
2018-03-06T08:20:24.596Z,10.79
2018-03-06T08:21:25.318Z,10.87
2018-03-06T08:22:26.042Z,11.33
2018-03-06T08:23:26.765Z,11.50
2018-03-06T08:24:27.490Z,11.90
2018-03-06T08:25:28.221Z,12.07
2018-03-06T08:26:28.943Z,11.97
2018-03-06T08:27:29.671Z,11.86
2018-03-06T08:28:30.392Z,12.25
2018-03-06T08:29:31.116Z,12.60
2018-03-06T08:30:31.838Z,12.37
2018-03-06T08:31:32.562Z,12.10
2018-03-06T08:32:33.292Z,12.13
2018-03-06T08:33:34.017Z,11.83
2018-03-06T08:34:34.737Z,12.06
2018-03-06T08:35:35.461Z,12.36
2018-03-06T08:36:36.183Z,12.46
2018-03-06T08:37:36.918Z,12.47
2018-03-06T08:38:37.642Z,12.76
2018-03-06T08:39:38.366Z,13.38
2018-03-06T08:40:39.096Z,13.63
2018-03-06T08:41:39.827Z,13.23
2018-03-06T08:42:40.563Z,12.93
2018-03-06T08:43:41.290Z,13.33
2018-03-06T08:44:42.025Z,13.86
2018-03-06T08:45:42.749Z,13.74
2018-03-06T08:46:43.477Z,13.95
2018-03-06T08:47:44.203Z,14.10
2018-03-06T08:48:44.943Z,14.26
2018-03-06T08:49:45.667Z,14.81
2018-03-06T08:50:46.392Z,14.79
2018-03-06T08:51:47.118Z,15.15
2018-03-06T08:52:47.844Z,15.52
2018-03-06T08:53:48.572Z,15.49
2018-03-06T08:54:49.302Z,15.00
2018-03-06T08:55:50.031Z,15.42
2018-03-06T08:56:50.772Z,15.39
2018-03-06T08:57:51.501Z,15.40
2018-03-06T08:58:52.231Z,15.31
2018-03-06T08:59:52.986Z,14.88
2018-03-06T09:00:53.690Z,15.11
2018-03-06T09:01:54.419Z,15.21
2018-03-06T09:02:55.150Z,15.42
2018-03-06T09:03:55.880Z,15.27
2018-03-06T09:04:56.612Z,15.31
2018-03-06T09:05:57.343Z,15.42
2018-03-06T09:06:58.074Z,14.69
2018-03-06T09:07:58.804Z,15.14
2018-03-06T09:08:59.549Z,14.58
2018-03-06T09:10:00.277Z,13.75
2018-03-06T09:11:01.018Z,13.60
2018-03-06T09:12:01.750Z,13.75
2018-03-06T09:13:02.483Z,14.05
2018-03-06T09:14:03.214Z,14.08
2018-03-06T09:15:03.943Z,14.32
2018-03-06T09:16:04.676Z,14.26
2018-03-06T09:17:05.408Z,14.62
2018-03-06T09:18:06.140Z,14.77
2018-03-06T09:19:06.869Z,14.14
2018-03-06T09:20:07.602Z,14.30
2018-03-06T09:21:08.336Z,14.68
2018-03-06T09:22:09.070Z,14.96
2018-03-06T09:23:09.800Z,14.96
2018-03-06T09:24:10.544Z,15.29
2018-03-06T09:25:11.277Z,15.14
2018-03-06T09:26:12.011Z,14.85
2018-03-06T09:27:12.748Z,14.85
2018-03-06T09:28:13.489Z,14.05
2018-03-06T09:29:14.223Z,14.28
2018-03-06T09:30:14.952Z,14.28
2018-03-06T09:31:15.687Z,14.59
2018-03-06T09:32:16.420Z,15.21
2018-03-06T09:33:17.155Z,15.18
2018-03-06T09:34:17.887Z,15.49
2018-03-06T09:35:18.621Z,15.52
2018-03-06T09:36:19.354Z,14.72
2018-03-06T09:37:20.089Z,14.62
2018-03-06T09:38:20.839Z,14.59
2018-03-06T09:39:21.567Z,14.35
2018-03-06T09:40:22.301Z,14.43
2018-03-06T09:41:23.037Z,13.92
2018-03-06T09:42:23.781Z,14.11
2018-03-06T09:43:24.519Z,13.52
2018-03-06T09:44:25.251Z,13.87
2018-03-06T09:45:25.986Z,14.36
2018-03-06T09:46:26.720Z,14.79
2018-03-06T09:47:27.468Z,15.37
2018-03-06T09:48:28.201Z,15.77
2018-03-06T09:49:28.937Z,16.33
2018-03-06T09:50:29.672Z,15.80
2018-03-06T09:51:30.407Z,15.59
2018-03-06T09:52:31.138Z,15.77
2018-03-06T09:53:31.885Z,15.82
2018-03-06T09:54:32.622Z,15.67
2018-03-06T09:55:33.351Z,15.73
2018-03-06T09:56:34.083Z,16.00
2018-03-06T09:57:34.858Z,16.43
2018-03-06T09:58:35.550Z,16.76
2018-03-06T09:59:36.283Z,17.15
2018-03-06T10:00:37.013Z,17.51
2018-03-06T10:01:37.744Z,17.86
2018-03-06T10:02:38.486Z,17.89
2018-03-06T10:03:39.228Z,16.74
2018-03-06T10:04:39.958Z,16.02
2018-03-06T10:05:40.702Z,16.90
2018-03-06T10:06:41.434Z,17.26
2018-03-06T10:07:42.177Z,17.63
2018-03-06T10:08:42.910Z,18.04
2018-03-06T10:09:43.654Z,17.74
2018-03-06T10:10:44.387Z,17.39
2018-03-06T10:11:45.118Z,18.08
2018-03-06T10:12:45.852Z,18.40
2018-03-06T10:13:46.584Z,17.87
2018-03-06T10:14:47.331Z,17.05
2018-03-06T10:15:48.063Z,16.99
2018-03-06T10:16:48.810Z,15.95
2018-03-06T10:17:49.557Z,15.98
2018-03-06T10:18:50.298Z,15.17
2018-03-06T10:19:51.059Z,15.21
2018-03-06T10:20:51.791Z,16.01
2018-03-06T10:21:52.523Z,16.35
2018-03-06T10:22:53.255Z,16.57
2018-03-06T10:23:54.006Z,16.24
2018-03-06T10:24:54.739Z,16.17
2018-03-06T10:25:55.530Z,16.20
2018-03-06T10:26:56.272Z,16.49
2018-03-06T10:27:57.006Z,15.97
2018-03-06T10:28:57.751Z,15.22
2018-03-06T10:29:58.501Z,15.39
2018-03-06T10:30:59.233Z,15.67
2018-03-06T10:31:59.983Z,16.29
2018-03-06T10:33:00.716Z,16.91
2018-03-06T10:34:01.452Z,15.77
2018-03-06T10:35:02.189Z,16.28
2018-03-06T10:36:02.938Z,16.49
2018-03-06T10:37:03.665Z,16.78
2018-03-06T10:38:04.441Z,17.49
2018-03-06T10:39:05.188Z,17.72
2018-03-06T10:40:05.915Z,17.42
2018-03-06T10:41:06.705Z,17.05
2018-03-06T10:42:07.437Z,17.30
2018-03-06T10:43:08.170Z,17.67
2018-03-06T10:44:08.903Z,17.44
2018-03-06T10:45:09.635Z,17.78
2018-03-06T10:46:10.367Z,17.44
2018-03-06T10:47:11.137Z,16.99
2018-03-06T10:48:11.870Z,16.17
2018-03-06T10:49:12.613Z,15.83
2018-03-06T10:50:13.343Z,15.59
2018-03-06T10:51:14.131Z,15.79
2018-03-06T10:52:14.867Z,15.72
2018-03-06T10:53:15.625Z,15.07
2018-03-06T10:54:16.387Z,14.82
2018-03-06T10:55:17.121Z,14.82
2018-03-06T10:56:17.859Z,14.85
2018-03-06T10:57:18.593Z,15.37
2018-03-06T10:58:19.327Z,15.57
2018-03-06T10:59:20.069Z,15.77
2018-03-06T11:00:20.833Z,15.84
2018-03-06T11:01:21.566Z,16.20
2018-03-06T11:02:22.297Z,16.20
2018-03-06T11:03:23.029Z,16.78
2018-03-06T11:04:23.763Z,16.49
2018-03-06T11:05:24.492Z,16.04
2018-03-06T11:06:25.287Z,16.00
2018-03-06T11:07:26.030Z,16.51
2018-03-06T11:08:26.763Z,16.79
2018-03-06T11:09:27.567Z,17.06
2018-03-06T11:10:28.302Z,17.22
2018-03-06T11:11:29.047Z,16.91
2018-03-06T11:12:29.781Z,16.12
2018-03-06T11:13:30.514Z,16.26
2018-03-06T11:14:31.246Z,16.57
2018-03-06T11:15:31.978Z,16.81
2018-03-06T11:16:32.708Z,17.02
2018-03-06T11:17:33.444Z,17.79
2018-03-06T11:18:34.191Z,17.71
2018-03-06T11:19:34.920Z,18.11
2018-03-06T11:20:35.652Z,19.09
2018-03-06T11:21:36.397Z,19.30
2018-03-06T11:22:37.140Z,19.47
2018-03-06T11:23:37.872Z,20.10
2018-03-06T11:24:38.687Z,20.10
2018-03-06T11:25:39.340Z,19.62
2018-03-06T11:26:40.074Z,18.22
2018-03-06T11:27:40.812Z,18.23
2018-03-06T11:28:41.540Z,18.95
2018-03-06T11:29:42.273Z,18.41
2018-03-06T11:30:43.010Z,19.04
2018-03-06T11:31:43.744Z,19.19
2018-03-06T11:32:44.475Z,18.73
2018-03-06T11:33:45.220Z,18.53
2018-03-06T11:34:45.966Z,18.05
2018-03-06T11:35:46.698Z,17.63
2018-03-06T11:36:47.443Z,17.41
2018-03-06T11:37:48.187Z,18.19
2018-03-06T11:38:48.920Z,18.77
2018-03-06T11:39:49.665Z,19.52
2018-03-06T11:40:50.398Z,19.51
2018-03-06T11:41:51.132Z,19.62
2018-03-06T11:42:51.864Z,20.10
2018-03-06T11:43:52.608Z,20.63
2018-03-06T11:44:53.340Z,20.95
2018-03-06T11:45:54.074Z,20.96
2018-03-06T11:46:54.809Z,20.96
2018-03-06T11:47:55.542Z,21.55
2018-03-06T11:48:56.286Z,21.43
2018-03-06T11:49:57.031Z,21.87
2018-03-06T11:50:57.775Z,22.10
2018-03-06T11:51:58.507Z,22.22
2018-03-06T11:52:59.246Z,21.43
2018-03-06T11:53:59.978Z,20.67
2018-03-06T11:55:00.712Z,20.28
2018-03-06T11:56:01.482Z,19.88
2018-03-06T11:57:02.174Z,19.14
2018-03-06T11:58:02.905Z,19.19
2018-03-06T11:59:03.643Z,18.70
2018-03-06T12:00:04.382Z,17.94
2018-03-06T12:01:05.114Z,17.67
2018-03-06T12:02:05.867Z,17.57
2018-03-06T12:03:06.577Z,17.89
2018-03-06T12:04:07.309Z,17.67
2018-03-06T12:05:08.041Z,18.00
2018-03-06T12:06:08.783Z,18.13
2018-03-06T12:07:09.526Z,17.90
2018-03-06T12:08:10.243Z,17.33
2018-03-06T12:09:10.975Z,16.94
2018-03-06T12:10:11.705Z,16.91
2018-03-06T12:11:12.433Z,16.96
2018-03-06T12:12:13.172Z,17.02
2018-03-06T12:13:13.914Z,16.56
2018-03-06T12:14:14.646Z,16.60
2018-03-06T12:15:15.377Z,16.50
2018-03-06T12:16:16.114Z,16.81
2018-03-06T12:17:16.840Z,16.64
2018-03-06T12:18:17.570Z,16.54
2018-03-06T12:19:18.301Z,16.43
2018-03-06T12:20:19.032Z,16.64
2018-03-06T12:21:19.776Z,16.53
2018-03-06T12:22:20.519Z,16.68
2018-03-06T12:23:21.251Z,16.66
2018-03-06T12:24:21.981Z,16.79
2018-03-06T12:25:22.726Z,17.16
2018-03-06T12:26:23.455Z,17.02
2018-03-06T12:27:24.187Z,17.05
2018-03-06T12:28:24.921Z,17.41
2018-03-06T12:29:25.676Z,17.76
2018-03-06T12:30:26.380Z,17.57
2018-03-06T12:31:27.114Z,17.39
2018-03-06T12:32:27.857Z,17.34
2018-03-06T12:33:28.589Z,17.46
2018-03-06T12:34:29.320Z,17.33
2018-03-06T12:35:30.057Z,17.59
2018-03-06T12:36:30.794Z,17.11
2018-03-06T12:37:31.524Z,17.11
2018-03-06T12:38:32.268Z,16.97
2018-03-06T12:39:33.009Z,16.57
2018-03-06T12:40:33.740Z,16.53
2018-03-06T12:41:34.482Z,16.05
2018-03-06T12:42:35.219Z,16.49
2018-03-06T12:43:35.962Z,16.96
2018-03-06T12:44:36.695Z,17.01
2018-03-06T12:45:37.425Z,16.87
2018-03-06T12:46:38.154Z,16.83
2018-03-06T12:47:38.886Z,17.06
2018-03-06T12:48:39.626Z,17.24
2018-03-06T12:49:40.357Z,16.87
2018-03-06T12:50:41.098Z,17.26
2018-03-06T12:51:41.826Z,17.19
2018-03-06T12:52:42.557Z,16.99
2018-03-06T12:53:43.286Z,17.15
2018-03-06T12:54:44.082Z,17.38
2018-03-06T12:55:44.746Z,17.24
2018-03-06T12:56:45.485Z,17.48
2018-03-06T12:57:46.216Z,17.51
2018-03-06T12:58:46.947Z,17.65
2018-03-06T12:59:47.690Z,18.00
2018-03-06T13:00:48.436Z,18.29
2018-03-06T13:01:49.162Z,18.68
2018-03-06T13:02:49.892Z,18.71
2018-03-06T13:03:50.620Z,18.52
2018-03-06T13:04:51.354Z,18.37
2018-03-06T13:05:52.081Z,18.29
2018-03-06T13:06:52.809Z,17.56
2018-03-06T13:07:53.540Z,17.31
2018-03-06T13:08:54.269Z,17.38
2018-03-06T13:09:55.000Z,17.52
2018-03-06T13:10:55.735Z,17.71
2018-03-06T13:11:56.463Z,17.59
2018-03-06T13:12:57.193Z,17.23
2018-03-06T13:13:57.921Z,17.41
2018-03-06T13:14:58.651Z,17.49
2018-03-06T13:15:59.390Z,17.85
2018-03-06T13:17:00.123Z,18.37
2018-03-06T13:18:00.852Z,18.63
2018-03-06T13:19:01.584Z,18.73
2018-03-06T13:20:02.314Z,18.83